sensor_id;sensor_type;location;lat;lon;timestamp;P1;durP1;ratioP1;P2;durP2;ratioP2
10144;SDS011;5113;41.822;23.564;2022-07-22T00:02:12;5.03;;;4.63;;
10144;SDS011;5113;41.822;23.564;2022-07-22T00:05:18;5.67;;;4.63;;
10144;SDS011;5113;41.822;23.564;2022-07-22T00:08:26;5.97;;;4.63;;
10144;SDS011;5113;41.822;23.564;2022-07-22T00:11:33;4.77;;;4.33;;
10144;SDS011;5113;41.822;23.564;2022-07-22T00:14:40;6.10;;;4.27;;
10144;SDS011;5113;41.822;23.564;2022-07-22T00:17:46;5.30;;;4.80;;
10144;SDS011;5113;41.822;23.564;2022-07-22T00:20:52;4.60;;;4.20;;
10144;SDS011;5113;41.822;23.564;2022-07-22T00:24:00;5.03;;;4.53;;
10144;SDS011;5113;41.822;23.564;2022-07-22T00:27:08;4.93;;;4.43;;
10144;SDS011;5113;41.822;23.564;2022-07-22T00:30:15;5.37;;;4.90;;
10144;SDS011;5113;41.822;23.564;2022-07-22T00:33:21;5.03;;;4.60;;
10144;SDS011;5113;41.822;23.564;2022-07-22T00:36:28;6.80;;;4.20;;
10144;SDS011;5113;41.822;23.564;2022-07-22T00:39:36;4.70;;;4.17;;
10144;SDS011;5113;41.822;23.564;2022-07-22T00:42:43;5.10;;;4.70;;
10144;SDS011;5113;41.822;23.564;2022-07-22T00:45:50;4.70;;;4.20;;
10144;SDS011;5113;41.822;23.564;2022-07-22T00:48:57;5.27;;;4.13;;
10144;SDS011;5113;41.822;23.564;2022-07-22T00:52:04;5.03;;;4.63;;
10144;SDS011;5113;41.822;23.564;2022-07-22T00:55:13;4.53;;;4.13;;
10144;SDS011;5113;41.822;23.564;2022-07-22T00:58:19;4.43;;;4.03;;
10144;SDS011;5113;41.822;23.564;2022-07-22T01:01:27;6.03;;;4.93;;
10144;SDS011;5113;41.822;23.564;2022-07-22T01:04:34;4.40;;;4.00;;
10144;SDS011;5113;41.822;23.564;2022-07-22T01:07:41;5.20;;;4.67;;
10144;SDS011;5113;41.822;23.564;2022-07-22T01:10:48;5.17;;;4.67;;
10144;SDS011;5113;41.822;23.564;2022-07-22T01:13:55;5.07;;;4.67;;
10144;SDS011;5113;41.822;23.564;2022-07-22T01:17:02;4.47;;;4.07;;
10144;SDS011;5113;41.822;23.564;2022-07-22T01:20:10;8.00;;;7.40;;
10144;SDS011;5113;41.822;23.564;2022-07-22T01:23:17;5.40;;;4.83;;
10144;SDS011;5113;41.822;23.564;2022-07-22T01:26:24;5.33;;;4.83;;
10144;SDS011;5113;41.822;23.564;2022-07-22T01:29:30;6.43;;;5.93;;
10144;SDS011;5113;41.822;23.564;2022-07-22T01:32:36;6.30;;;4.93;;
10144;SDS011;5113;41.822;23.564;2022-07-22T01:35:44;5.13;;;4.57;;
10144;SDS011;5113;41.822;23.564;2022-07-22T01:38:50;6.47;;;5.23;;
10144;SDS011;5113;41.822;23.564;2022-07-22T01:41:57;5.43;;;4.90;;
10144;SDS011;5113;41.822;23.564;2022-07-22T01:45:03;7.47;;;5.17;;
10144;SDS011;5113;41.822;23.564;2022-07-22T01:48:10;14.07;;;5.13;;
10144;SDS011;5113;41.822;23.564;2022-07-22T01:51:18;7.03;;;5.53;;
10144;SDS011;5113;41.822;23.564;2022-07-22T01:54:25;5.33;;;4.83;;
10144;SDS011;5113;41.822;23.564;2022-07-22T01:57:31;5.70;;;5.07;;
10144;SDS011;5113;41.822;23.564;2022-07-22T02:00:37;6.67;;;5.13;;
10144;SDS011;5113;41.822;23.564;2022-07-22T02:03:44;6.67;;;5.50;;
10144;SDS011;5113;41.822;23.564;2022-07-22T02:06:52;6.27;;;5.43;;
10144;SDS011;5113;41.822;23.564;2022-07-22T02:09:59;9.40;;;5.67;;
10144;SDS011;5113;41.822;23.564;2022-07-22T02:13:05;7.73;;;5.47;;
10144;SDS011;5113;41.822;23.564;2022-07-22T02:16:12;8.73;;;5.37;;
10144;SDS011;5113;41.822;23.564;2022-07-22T02:19:23;6.17;;;5.33;;
10144;SDS011;5113;41.822;23.564;2022-07-22T02:22:31;9.37;;;5.77;;
10144;SDS011;5113;41.822;23.564;2022-07-22T02:25:37;6.60;;;5.90;;
10144;SDS011;5113;41.822;23.564;2022-07-22T02:28:44;17.70;;;7.93;;
10144;SDS011;5113;41.822;23.564;2022-07-22T02:31:50;9.73;;;7.47;;
10144;SDS011;5113;41.822;23.564;2022-07-22T02:34:57;10.20;;;7.93;;
10144;SDS011;5113;41.822;23.564;2022-07-22T02:38:05;16.93;;;11.27;;
10144;SDS011;5113;41.822;23.564;2022-07-22T02:41:12;11.77;;;8.77;;
10144;SDS011;5113;41.822;23.564;2022-07-22T02:44:18;18.57;;;9.07;;
10144;SDS011;5113;41.822;23.564;2022-07-22T02:47:25;12.43;;;9.63;;
10144;SDS011;5113;41.822;23.564;2022-07-22T02:50:31;18.97;;;10.03;;
10144;SDS011;5113;41.822;23.564;2022-07-22T02:53:39;10.37;;;8.70;;
10144;SDS011;5113;41.822;23.564;2022-07-22T02:56:45;12.50;;;7.30;;
10144;SDS011;5113;41.822;23.564;2022-07-22T02:59:52;7.40;;;6.70;;
10144;SDS011;5113;41.822;23.564;2022-07-22T03:02:58;10.00;;;6.83;;
10144;SDS011;5113;41.822;23.564;2022-07-22T03:06:04;11.57;;;9.07;;
10144;SDS011;5113;41.822;23.564;2022-07-22T03:09:12;10.33;;;7.77;;
10144;SDS011;5113;41.822;23.564;2022-07-22T03:12:18;12.43;;;8.10;;
10144;SDS011;5113;41.822;23.564;2022-07-22T03:15:24;11.43;;;8.10;;
10144;SDS011;5113;41.822;23.564;2022-07-22T03:18:30;11.10;;;7.33;;
10144;SDS011;5113;41.822;23.564;2022-07-22T03:21:37;8.43;;;7.60;;
10144;SDS011;5113;41.822;23.564;2022-07-22T03:24:45;11.53;;;8.03;;
10144;SDS011;5113;41.822;23.564;2022-07-22T03:27:51;12.13;;;8.20;;
10144;SDS011;5113;41.822;23.564;2022-07-22T03:30:57;11.13;;;8.03;;
10144;SDS011;5113;41.822;23.564;2022-07-22T03:34:04;13.27;;;8.97;;
10144;SDS011;5113;41.822;23.564;2022-07-22T03:37:10;11.90;;;8.83;;
10144;SDS011;5113;41.822;23.564;2022-07-22T03:40:18;14.03;;;9.20;;
10144;SDS011;5113;41.822;23.564;2022-07-22T03:43:25;15.63;;;11.00;;
10144;SDS011;5113;41.822;23.564;2022-07-22T03:46:32;17.97;;;10.33;;
10144;SDS011;5113;41.822;23.564;2022-07-22T03:49:38;22.90;;;12.30;;
10144;SDS011;5113;41.822;23.564;2022-07-22T03:52:44;17.70;;;10.73;;
10144;SDS011;5113;41.822;23.564;2022-07-22T03:55:52;18.87;;;14.50;;
10144;SDS011;5113;41.822;23.564;2022-07-22T03:58:58;19.77;;;12.57;;
10144;SDS011;5113;41.822;23.564;2022-07-22T04:02:05;15.73;;;11.50;;
10144;SDS011;5113;41.822;23.564;2022-07-22T04:05:11;16.50;;;10.83;;
10144;SDS011;5113;41.822;23.564;2022-07-22T04:08:17;16.50;;;11.27;;
10144;SDS011;5113;41.822;23.564;2022-07-22T04:11:25;18.50;;;11.97;;
10144;SDS011;5113;41.822;23.564;2022-07-22T04:14:32;16.23;;;11.07;;
10144;SDS011;5113;41.822;23.564;2022-07-22T04:17:38;16.43;;;11.57;;
10144;SDS011;5113;41.822;23.564;2022-07-22T04:20:44;17.00;;;10.40;;
10144;SDS011;5113;41.822;23.564;2022-07-22T04:23:51;19.83;;;12.13;;
10144;SDS011;5113;41.822;23.564;2022-07-22T04:27:06;14.53;;;10.23;;
10144;SDS011;5113;41.822;23.564;2022-07-22T04:30:12;15.80;;;11.20;;
10144;SDS011;5113;41.822;23.564;2022-07-22T04:33:18;14.40;;;10.50;;
10144;SDS011;5113;41.822;23.564;2022-07-22T04:36:25;19.50;;;11.27;;
10144;SDS011;5113;41.822;23.564;2022-07-22T04:39:31;18.37;;;11.10;;
10144;SDS011;5113;41.822;23.564;2022-07-22T04:42:39;14.23;;;10.90;;
10144;SDS011;5113;41.822;23.564;2022-07-22T04:45:45;17.20;;;9.87;;
10144;SDS011;5113;41.822;23.564;2022-07-22T04:48:51;17.33;;;10.03;;
10144;SDS011;5113;41.822;23.564;2022-07-22T04:51:58;11.60;;;9.10;;
10144;SDS011;5113;41.822;23.564;2022-07-22T04:55:04;12.57;;;9.67;;
10144;SDS011;5113;41.822;23.564;2022-07-22T04:58:14;10.10;;;7.83;;
10144;SDS011;5113;41.822;23.564;2022-07-22T05:01:21;10.13;;;9.03;;
10144;SDS011;5113;41.822;23.564;2022-07-22T05:04:27;12.00;;;8.80;;
10144;SDS011;5113;41.822;23.564;2022-07-22T05:07:34;12.10;;;9.20;;
10144;SDS011;5113;41.822;23.564;2022-07-22T05:10:40;13.63;;;10.33;;
10144;SDS011;5113;41.822;23.564;2022-07-22T05:13:48;18.37;;;11.03;;
10144;SDS011;5113;41.822;23.564;2022-07-22T05:16:55;15.73;;;10.00;;
10144;SDS011;5113;41.822;23.564;2022-07-22T05:20:02;9.23;;;8.20;;
10144;SDS011;5113;41.822;23.564;2022-07-22T05:23:09;13.30;;;9.17;;
10144;SDS011;5113;41.822;23.564;2022-07-22T05:26:15;9.67;;;7.83;;
10144;SDS011;5113;41.822;23.564;2022-07-22T05:29:23;9.70;;;8.67;;
10144;SDS011;5113;41.822;23.564;2022-07-22T05:32:30;10.17;;;9.13;;
10144;SDS011;5113;41.822;23.564;2022-07-22T05:35:36;8.07;;;7.20;;
10144;SDS011;5113;41.822;23.564;2022-07-22T05:38:43;10.07;;;8.47;;
10144;SDS011;5113;41.822;23.564;2022-07-22T05:41:49;11.37;;;8.83;;
10144;SDS011;5113;41.822;23.564;2022-07-22T05:45:01;10.77;;;7.00;;
10144;SDS011;5113;41.822;23.564;2022-07-22T05:48:08;12.50;;;7.77;;
10144;SDS011;5113;41.822;23.564;2022-07-22T05:51:14;7.87;;;7.10;;
10144;SDS011;5113;41.822;23.564;2022-07-22T05:54:20;10.60;;;6.27;;
10144;SDS011;5113;41.822;23.564;2022-07-22T05:57:27;7.73;;;6.90;;
10144;SDS011;5113;41.822;23.564;2022-07-22T06:00:34;7.57;;;6.83;;
10144;SDS011;5113;41.822;23.564;2022-07-22T06:03:40;7.47;;;6.67;;
10144;SDS011;5113;41.822;23.564;2022-07-22T06:06:47;6.40;;;5.80;;
10144;SDS011;5113;41.822;23.564;2022-07-22T06:09:53;5.70;;;5.20;;
10144;SDS011;5113;41.822;23.564;2022-07-22T06:12:59;7.73;;;6.07;;
10144;SDS011;5113;41.822;23.564;2022-07-22T06:16:07;7.60;;;6.40;;
10144;SDS011;5113;41.822;23.564;2022-07-22T06:19:13;7.93;;;5.57;;
10144;SDS011;5113;41.822;23.564;2022-07-22T06:22:20;7.93;;;6.07;;
10144;SDS011;5113;41.822;23.564;2022-07-22T06:25:26;6.30;;;5.07;;
10144;SDS011;5113;41.822;23.564;2022-07-22T06:28:46;7.00;;;5.80;;
10144;SDS011;5113;41.822;23.564;2022-07-22T06:31:54;7.97;;;5.67;;
10144;SDS011;5113;41.822;23.564;2022-07-22T06:35:01;5.80;;;5.20;;
10144;SDS011;5113;41.822;23.564;2022-07-22T06:38:08;9.40;;;7.20;;
10144;SDS011;5113;41.822;23.564;2022-07-22T06:41:32;5.97;;;5.47;;
10144;SDS011;5113;41.822;23.564;2022-07-22T06:44:39;7.47;;;5.67;;
10144;SDS011;5113;41.822;23.564;2022-07-22T06:47:47;8.40;;;6.40;;
10144;SDS011;5113;41.822;23.564;2022-07-22T06:50:55;8.13;;;6.37;;
10144;SDS011;5113;41.822;23.564;2022-07-22T06:54:01;8.27;;;6.77;;
10144;SDS011;5113;41.822;23.564;2022-07-22T06:57:07;11.60;;;6.88;;
10144;SDS011;5113;41.822;23.564;2022-07-22T07:00:14;9.30;;;6.40;;
10144;SDS011;5113;41.822;23.564;2022-07-22T07:03:22;7.30;;;6.53;;
10144;SDS011;5113;41.822;23.564;2022-07-22T07:06:39;5.72;;;5.15;;
10144;SDS011;5113;41.822;23.564;2022-07-22T07:09:46;7.10;;;6.50;;
10144;SDS011;5113;41.822;23.564;2022-07-22T07:12:54;8.40;;;6.30;;
10144;SDS011;5113;41.822;23.564;2022-07-22T07:16:01;6.57;;;5.97;;
10144;SDS011;5113;41.822;23.564;2022-07-22T07:19:09;7.32;;;6.40;;
10144;SDS011;5113;41.822;23.564;2022-07-22T07:22:15;7.50;;;6.03;;
10144;SDS011;5113;41.822;23.564;2022-07-22T07:25:21;11.65;;;7.40;;
10144;SDS011;5113;41.822;23.564;2022-07-22T07:38:50;7.90;;;7.15;;
10144;SDS011;5113;41.822;23.564;2022-07-22T07:41:58;7.28;;;6.57;;
10144;SDS011;5113;41.822;23.564;2022-07-22T07:45:04;9.07;;;6.93;;
10144;SDS011;5113;41.822;23.564;2022-07-22T07:48:11;5.95;;;5.43;;
10144;SDS011;5113;41.822;23.564;2022-07-22T07:51:17;9.98;;;9.15;;
10144;SDS011;5113;41.822;23.564;2022-07-22T07:54:25;11.02;;;5.80;;
10144;SDS011;5113;41.822;23.564;2022-07-22T07:57:36;6.05;;;5.32;;
10144;SDS011;5113;41.822;23.564;2022-07-22T08:00:42;6.57;;;5.90;;
10144;SDS011;5113;41.822;23.564;2022-07-22T08:03:49;5.70;;;5.13;;
10144;SDS011;5113;41.822;23.564;2022-07-22T08:07:15;6.15;;;5.32;;
10144;SDS011;5113;41.822;23.564;2022-07-22T08:10:24;6.35;;;5.50;;
10144;SDS011;5113;41.822;23.564;2022-07-22T08:13:51;7.28;;;4.65;;
10144;SDS011;5113;41.822;23.564;2022-07-22T08:16:57;5.53;;;5.03;;
10144;SDS011;5113;41.822;23.564;2022-07-22T08:20:05;6.10;;;5.60;;
10144;SDS011;5113;41.822;23.564;2022-07-22T08:23:12;5.93;;;4.95;;
10144;SDS011;5113;41.822;23.564;2022-07-22T08:26:21;8.18;;;5.00;;
10144;SDS011;5113;41.822;23.564;2022-07-22T08:29:34;7.10;;;6.40;;
10144;SDS011;5113;41.822;23.564;2022-07-22T08:32:41;6.95;;;5.75;;
10144;SDS011;5113;41.822;23.564;2022-07-22T08:35:47;6.57;;;4.90;;
10144;SDS011;5113;41.822;23.564;2022-07-22T08:38:54;5.28;;;4.80;;
10144;SDS011;5113;41.822;23.564;2022-07-22T08:42:02;8.55;;;4.88;;
10144;SDS011;5113;41.822;23.564;2022-07-22T08:45:10;5.85;;;5.25;;
10144;SDS011;5113;41.822;23.564;2022-07-22T08:48:22;7.43;;;5.45;;
10144;SDS011;5113;41.822;23.564;2022-07-22T08:51:29;9.63;;;5.35;;
10144;SDS011;5113;41.822;23.564;2022-07-22T08:54:36;9.27;;;6.65;;
10144;SDS011;5113;41.822;23.564;2022-07-22T08:57:45;11.13;;;6.50;;
10144;SDS011;5113;41.822;23.564;2022-07-22T09:01:03;6.63;;;4.97;;
10144;SDS011;5113;41.822;23.564;2022-07-22T09:04:10;4.25;;;3.90;;
10144;SDS011;5113;41.822;23.564;2022-07-22T09:07:22;9.88;;;7.82;;
10144;SDS011;5113;41.822;23.564;2022-07-22T09:10:31;7.95;;;4.70;;
10144;SDS011;5113;41.822;23.564;2022-07-22T09:13:40;5.00;;;4.60;;
10144;SDS011;5113;41.822;23.564;2022-07-22T09:16:48;8.00;;;7.30;;
10144;SDS011;5113;41.822;23.564;2022-07-22T09:19:55;4.10;;;3.78;;
10144;SDS011;5113;41.822;23.564;2022-07-22T09:23:05;7.45;;;4.47;;
10144;SDS011;5113;41.822;23.564;2022-07-22T09:26:29;8.75;;;6.80;;
10144;SDS011;5113;41.822;23.564;2022-07-22T09:29:38;4.57;;;4.00;;
10144;SDS011;5113;41.822;23.564;2022-07-22T09:32:55;4.38;;;4.05;;
10144;SDS011;5113;41.822;23.564;2022-07-22T09:36:04;5.03;;;4.38;;
10144;SDS011;5113;41.822;23.564;2022-07-22T09:39:24;6.03;;;4.38;;
10144;SDS011;5113;41.822;23.564;2022-07-22T09:42:35;4.47;;;4.07;;
10144;SDS011;5113;41.822;23.564;2022-07-22T09:45:53;6.35;;;4.50;;
10144;SDS011;5113;41.822;23.564;2022-07-22T09:49:02;7.78;;;5.18;;
10144;SDS011;5113;41.822;23.564;2022-07-22T09:52:08;4.72;;;4.43;;
10144;SDS011;5113;41.822;23.564;2022-07-22T09:55:15;3.72;;;3.42;;
10144;SDS011;5113;41.822;23.564;2022-07-22T09:58:22;3.75;;;3.40;;
10144;SDS011;5113;41.822;23.564;2022-07-22T10:01:30;4.45;;;4.10;;
10144;SDS011;5113;41.822;23.564;2022-07-22T10:04:37;3.83;;;3.50;;
10144;SDS011;5113;41.822;23.564;2022-07-22T10:07:46;6.50;;;5.90;;
10144;SDS011;5113;41.822;23.564;2022-07-22T10:10:53;4.50;;;4.10;;
10144;SDS011;5113;41.822;23.564;2022-07-22T10:14:05;4.15;;;3.50;;
10144;SDS011;5113;41.822;23.564;2022-07-22T10:17:14;3.78;;;3.58;;
10144;SDS011;5113;41.822;23.564;2022-07-22T10:20:22;5.97;;;5.47;;
10144;SDS011;5113;41.822;23.564;2022-07-22T10:23:30;6.00;;;5.53;;
10144;SDS011;5113;41.822;23.564;2022-07-22T10:26:46;8.00;;;7.32;;
10144;SDS011;5113;41.822;23.564;2022-07-22T10:29:53;4.70;;;4.30;;
10144;SDS011;5113;41.822;23.564;2022-07-22T10:36:30;4.32;;;3.88;;
10144;SDS011;5113;41.822;23.564;2022-07-22T10:39:49;4.43;;;4.07;;
10144;SDS011;5113;41.822;23.564;2022-07-22T10:43:18;5.35;;;4.32;;
10144;SDS011;5113;41.822;23.564;2022-07-22T10:46:34;5.32;;;4.10;;
10144;SDS011;5113;41.822;23.564;2022-07-22T10:49:56;5.55;;;4.35;;
10144;SDS011;5113;41.822;23.564;2022-07-22T10:53:45;4.65;;;3.78;;
10144;SDS011;5113;41.822;23.564;2022-07-22T10:56:53;4.65;;;4.32;;
10144;SDS011;5113;41.822;23.564;2022-07-22T11:00:02;4.72;;;4.28;;
10144;SDS011;5113;41.822;23.564;2022-07-22T11:03:09;4.43;;;4.03;;
10144;SDS011;5113;41.822;23.564;2022-07-22T11:06:21;5.22;;;4.75;;
10144;SDS011;5113;41.822;23.564;2022-07-22T11:09:32;5.25;;;3.72;;
10144;SDS011;5113;41.822;23.564;2022-07-22T11:12:41;4.47;;;4.07;;
10144;SDS011;5113;41.822;23.564;2022-07-22T11:15:49;5.43;;;3.67;;
10144;SDS011;5113;41.822;23.564;2022-07-22T11:18:57;7.75;;;7.20;;
10144;SDS011;5113;41.822;23.564;2022-07-22T11:22:07;4.32;;;3.92;;
10144;SDS011;5113;41.822;23.564;2022-07-22T11:25:14;5.88;;;4.80;;
10144;SDS011;5113;41.822;23.564;2022-07-22T11:28:22;4.65;;;4.13;;
10144;SDS011;5113;41.822;23.564;2022-07-22T11:31:30;4.32;;;4.03;;
10144;SDS011;5113;41.822;23.564;2022-07-22T11:34:37;7.30;;;4.57;;
10144;SDS011;5113;41.822;23.564;2022-07-22T11:37:56;4.55;;;3.97;;
10144;SDS011;5113;41.822;23.564;2022-07-22T11:41:02;4.65;;;4.30;;
10144;SDS011;5113;41.822;23.564;2022-07-22T11:44:09;4.43;;;3.97;;
10144;SDS011;5113;41.822;23.564;2022-07-22T11:47:15;4.82;;;4.32;;
10144;SDS011;5113;41.822;23.564;2022-07-22T11:50:29;4.78;;;4.05;;
10144;SDS011;5113;41.822;23.564;2022-07-22T11:53:37;4.22;;;3.97;;
10144;SDS011;5113;41.822;23.564;2022-07-22T11:56:45;4.70;;;4.30;;
10144;SDS011;5113;41.822;23.564;2022-07-22T11:59:55;5.32;;;3.83;;
10144;SDS011;5113;41.822;23.564;2022-07-22T12:03:11;5.05;;;4.55;;
10144;SDS011;5113;41.822;23.564;2022-07-22T12:06:19;4.95;;;4.45;;
10144;SDS011;5113;41.822;23.564;2022-07-22T12:09:28;6.72;;;4.43;;
10144;SDS011;5113;41.822;23.564;2022-07-22T12:12:40;4.13;;;3.72;;
10144;SDS011;5113;41.822;23.564;2022-07-22T12:15:46;4.70;;;4.28;;
10144;SDS011;5113;41.822;23.564;2022-07-22T12:18:56;4.28;;;4.00;;
10144;SDS011;5113;41.822;23.564;2022-07-22T12:22:05;4.55;;;4.25;;
10144;SDS011;5113;41.822;23.564;2022-07-22T12:25:15;4.65;;;4.25;;
10144;SDS011;5113;41.822;23.564;2022-07-22T12:28:23;5.40;;;4.90;;
10144;SDS011;5113;41.822;23.564;2022-07-22T12:31:31;5.07;;;4.50;;
10144;SDS011;5113;41.822;23.564;2022-07-22T12:34:47;4.70;;;4.40;;
10144;SDS011;5113;41.822;23.564;2022-07-22T12:38:05;4.55;;;4.10;;
10144;SDS011;5113;41.822;23.564;2022-07-22T12:41:26;4.63;;;4.22;;
10144;SDS011;5113;41.822;23.564;2022-07-22T12:44:34;4.72;;;4.35;;
10144;SDS011;5113;41.822;23.564;2022-07-22T12:47:41;5.20;;;4.70;;
10144;SDS011;5113;41.822;23.564;2022-07-22T12:50:55;4.72;;;4.43;;
10144;SDS011;5113;41.822;23.564;2022-07-22T12:54:02;7.75;;;5.32;;
10144;SDS011;5113;41.822;23.564;2022-07-22T12:57:10;5.18;;;4.78;;
10144;SDS011;5113;41.822;23.564;2022-07-22T13:00:17;5.78;;;4.90;;
10144;SDS011;5113;41.822;23.564;2022-07-22T13:03:25;5.32;;;4.93;;
10144;SDS011;5113;41.822;23.564;2022-07-22T13:06:33;5.70;;;5.15;;
10144;SDS011;5113;41.822;23.564;2022-07-22T13:09:39;5.10;;;4.70;;
10144;SDS011;5113;41.822;23.564;2022-07-22T13:12:47;4.90;;;4.57;;
10144;SDS011;5113;41.822;23.564;2022-07-22T13:15:54;5.65;;;5.25;;
10144;SDS011;5113;41.822;23.564;2022-07-22T13:19:01;4.95;;;4.55;;
10144;SDS011;5113;41.822;23.564;2022-07-22T13:22:07;5.07;;;4.68;;
10144;SDS011;5113;41.822;23.564;2022-07-22T13:25:13;5.50;;;5.10;;
10144;SDS011;5113;41.822;23.564;2022-07-22T13:28:21;4.97;;;4.57;;
10144;SDS011;5113;41.822;23.564;2022-07-22T13:31:27;4.90;;;4.50;;
10144;SDS011;5113;41.822;23.564;2022-07-22T13:34:33;4.50;;;3.50;;
10144;SDS011;5113;41.822;23.564;2022-07-22T13:37:40;5.22;;;4.72;;
10144;SDS011;5113;41.822;23.564;2022-07-22T13:40:46;6.00;;;4.22;;
10144;SDS011;5113;41.822;23.564;2022-07-22T13:43:57;5.40;;;3.97;;
10144;SDS011;5113;41.822;23.564;2022-07-22T13:47:11;9.15;;;8.43;;
10144;SDS011;5113;41.822;23.564;2022-07-22T13:50:17;4.03;;;3.72;;
10144;SDS011;5113;41.822;23.564;2022-07-22T13:53:23;11.43;;;10.68;;
10144;SDS011;5113;41.822;23.564;2022-07-22T13:56:29;11.95;;;11.45;;
10144;SDS011;5113;41.822;23.564;2022-07-22T13:59:38;12.20;;;11.60;;
10144;SDS011;5113;41.822;23.564;2022-07-22T14:02:45;5.45;;;4.00;;
10144;SDS011;5113;41.822;23.564;2022-07-22T14:05:51;4.97;;;4.50;;
10144;SDS011;5113;41.822;23.564;2022-07-22T14:08:57;6.88;;;4.05;;
10144;SDS011;5113;41.822;23.564;2022-07-22T14:12:04;4.93;;;3.92;;
10144;SDS011;5113;41.822;23.564;2022-07-22T14:15:12;4.15;;;3.85;;
10144;SDS011;5113;41.822;23.564;2022-07-22T14:18:19;3.97;;;3.65;;
10144;SDS011;5113;41.822;23.564;2022-07-22T14:21:25;13.10;;;12.30;;
10144;SDS011;5113;41.822;23.564;2022-07-22T14:24:32;11.10;;;10.30;;
10144;SDS011;5113;41.822;23.564;2022-07-22T14:27:38;10.32;;;9.60;;
10144;SDS011;5113;41.822;23.564;2022-07-22T14:30:46;13.38;;;12.68;;
10144;SDS011;5113;41.822;23.564;2022-07-22T14:33:53;3.92;;;3.72;;
10144;SDS011;5113;41.822;23.564;2022-07-22T14:37:01;4.30;;;3.90;;
10144;SDS011;5113;41.822;23.564;2022-07-22T14:40:08;4.00;;;3.70;;
10144;SDS011;5113;41.822;23.564;2022-07-22T14:43:16;4.90;;;4.50;;
10144;SDS011;5113;41.822;23.564;2022-07-22T14:46:44;7.45;;;6.95;;
10144;SDS011;5113;41.822;23.564;2022-07-22T14:49:50;4.45;;;4.05;;
10144;SDS011;5113;41.822;23.564;2022-07-22T14:52:56;3.67;;;3.47;;
10144;SDS011;5113;41.822;23.564;2022-07-22T14:56:03;8.10;;;7.60;;
10144;SDS011;5113;41.822;23.564;2022-07-22T14:59:10;4.38;;;4.07;;
10144;SDS011;5113;41.822;23.564;2022-07-22T15:02:18;3.78;;;3.47;;
10144;SDS011;5113;41.822;23.564;2022-07-22T15:05:25;3.40;;;3.20;;
10144;SDS011;5113;41.822;23.564;2022-07-22T15:08:31;3.97;;;3.72;;
10144;SDS011;5113;41.822;23.564;2022-07-22T15:11:38;4.32;;;3.97;;
10144;SDS011;5113;41.822;23.564;2022-07-22T15:14:44;3.53;;;3.22;;
10144;SDS011;5113;41.822;23.564;2022-07-22T15:17:51;3.97;;;3.67;;
10144;SDS011;5113;41.822;23.564;2022-07-22T15:20:58;4.80;;;4.30;;
10144;SDS011;5113;41.822;23.564;2022-07-22T15:24:04;4.00;;;3.63;;
10144;SDS011;5113;41.822;23.564;2022-07-22T15:27:11;4.30;;;3.90;;
10144;SDS011;5113;41.822;23.564;2022-07-22T15:30:17;4.60;;;4.22;;
10144;SDS011;5113;41.822;23.564;2022-07-22T15:33:26;5.53;;;5.10;;
10144;SDS011;5113;41.822;23.564;2022-07-22T15:36:41;4.18;;;3.85;;
10144;SDS011;5113;41.822;23.564;2022-07-22T15:39:47;5.13;;;4.03;;
10144;SDS011;5113;41.822;23.564;2022-07-22T15:42:53;5.07;;;4.20;;
10144;SDS011;5113;41.822;23.564;2022-07-22T15:46:00;4.78;;;4.20;;
10144;SDS011;5113;41.822;23.564;2022-07-22T15:49:08;4.25;;;3.95;;
10144;SDS011;5113;41.822;23.564;2022-07-22T15:52:16;4.57;;;4.20;;
10144;SDS011;5113;41.822;23.564;2022-07-22T15:55:22;6.60;;;6.10;;
10144;SDS011;5113;41.822;23.564;2022-07-22T15:58:29;4.70;;;4.30;;
10144;SDS011;5113;41.822;23.564;2022-07-22T16:02:13;4.10;;;3.80;;
10144;SDS011;5113;41.822;23.564;2022-07-22T16:05:21;4.28;;;3.88;;
10144;SDS011;5113;41.822;23.564;2022-07-22T16:08:27;4.13;;;3.88;;
10144;SDS011;5113;41.822;23.564;2022-07-22T16:11:34;4.70;;;4.30;;
10144;SDS011;5113;41.822;23.564;2022-07-22T16:14:40;5.30;;;4.90;;
10144;SDS011;5113;41.822;23.564;2022-07-22T16:17:47;5.55;;;5.05;;
10144;SDS011;5113;41.822;23.564;2022-07-22T16:20:55;6.25;;;5.65;;
10144;SDS011;5113;41.822;23.564;2022-07-22T16:24:02;4.22;;;3.97;;
10144;SDS011;5113;41.822;23.564;2022-07-22T16:27:08;5.15;;;4.65;;
10144;SDS011;5113;41.822;23.564;2022-07-22T16:30:15;5.25;;;3.60;;
10144;SDS011;5113;41.822;23.564;2022-07-22T16:33:21;4.45;;;3.90;;
10144;SDS011;5113;41.822;23.564;2022-07-22T16:36:29;4.35;;;3.95;;
10144;SDS011;5113;41.822;23.564;2022-07-22T16:39:35;4.72;;;4.20;;
10144;SDS011;5113;41.822;23.564;2022-07-22T16:42:42;5.07;;;4.45;;
10144;SDS011;5113;41.822;23.564;2022-07-22T16:45:49;6.22;;;4.13;;
10144;SDS011;5113;41.822;23.564;2022-07-22T16:48:55;5.45;;;3.88;;
10144;SDS011;5113;41.822;23.564;2022-07-22T16:52:04;8.75;;;4.78;;
10144;SDS011;5113;41.822;23.564;2022-07-22T16:55:10;6.00;;;5.50;;
10144;SDS011;5113;41.822;23.564;2022-07-22T16:58:16;4.18;;;3.88;;
10144;SDS011;5113;41.822;23.564;2022-07-22T17:01:22;5.57;;;4.45;;
10144;SDS011;5113;41.822;23.564;2022-07-22T17:04:29;6.10;;;5.00;;
10144;SDS011;5113;41.822;23.564;2022-07-22T17:07:37;6.47;;;5.63;;
10144;SDS011;5113;41.822;23.564;2022-07-22T17:10:42;6.25;;;4.90;;
10144;SDS011;5113;41.822;23.564;2022-07-22T17:13:49;6.40;;;4.63;;
10144;SDS011;5113;41.822;23.564;2022-07-22T17:16:56;11.00;;;6.28;;
10144;SDS011;5113;41.822;23.564;2022-07-22T17:20:02;7.50;;;6.68;;
10144;SDS011;5113;41.822;23.564;2022-07-22T17:23:11;7.15;;;5.30;;
10144;SDS011;5113;41.822;23.564;2022-07-22T17:26:17;8.55;;;7.30;;
10144;SDS011;5113;41.822;23.564;2022-07-22T17:29:24;10.38;;;6.25;;
10144;SDS011;5113;41.822;23.564;2022-07-22T17:32:30;10.32;;;7.70;;
10144;SDS011;5113;41.822;23.564;2022-07-22T17:35:37;6.60;;;6.00;;
10144;SDS011;5113;41.822;23.564;2022-07-22T17:38:47;9.93;;;6.07;;
10144;SDS011;5113;41.822;23.564;2022-07-22T17:41:55;6.63;;;4.55;;
10144;SDS011;5113;41.822;23.564;2022-07-22T17:45:01;4.65;;;4.35;;
10144;SDS011;5113;41.822;23.564;2022-07-22T17:48:08;5.07;;;4.68;;
10144;SDS011;5113;41.822;23.564;2022-07-22T17:51:15;4.80;;;4.28;;
10144;SDS011;5113;41.822;23.564;2022-07-22T17:54:29;21.60;;;20.23;;
10144;SDS011;5113;41.822;23.564;2022-07-22T17:57:35;12.05;;;11.02;;
10144;SDS011;5113;41.822;23.564;2022-07-22T18:00:42;5.22;;;3.75;;
10144;SDS011;5113;41.822;23.564;2022-07-22T18:03:48;6.72;;;6.13;;
10144;SDS011;5113;41.822;23.564;2022-07-22T18:06:54;4.28;;;3.97;;
10144;SDS011;5113;41.822;23.564;2022-07-22T18:10:05;4.38;;;3.97;;
10144;SDS011;5113;41.822;23.564;2022-07-22T18:13:11;13.73;;;5.45;;
10144;SDS011;5113;41.822;23.564;2022-07-22T18:16:19;6.30;;;4.95;;
10144;SDS011;5113;41.822;23.564;2022-07-22T18:19:26;4.85;;;4.35;;
10144;SDS011;5113;41.822;23.564;2022-07-22T18:22:32;5.33;;;4.37;;
10144;SDS011;5113;41.822;23.564;2022-07-22T18:25:40;10.25;;;4.65;;
10144;SDS011;5113;41.822;23.564;2022-07-22T18:28:49;7.57;;;4.97;;
10144;SDS011;5113;41.822;23.564;2022-07-22T18:31:56;8.53;;;5.33;;
10144;SDS011;5113;41.822;23.564;2022-07-22T18:35:03;6.13;;;4.87;;
10144;SDS011;5113;41.822;23.564;2022-07-22T18:38:10;10.10;;;5.67;;
10144;SDS011;5113;41.822;23.564;2022-07-22T18:41:18;8.57;;;5.50;;
10144;SDS011;5113;41.822;23.564;2022-07-22T18:44:24;11.17;;;6.60;;
10144;SDS011;5113;41.822;23.564;2022-07-22T18:47:31;12.13;;;6.93;;
10144;SDS011;5113;41.822;23.564;2022-07-22T18:50:37;22.97;;;10.80;;
10144;SDS011;5113;41.822;23.564;2022-07-22T18:53:44;22.47;;;11.60;;
10144;SDS011;5113;41.822;23.564;2022-07-22T18:56:53;22.17;;;9.50;;
10144;SDS011;5113;41.822;23.564;2022-07-22T19:00:00;8.13;;;6.10;;
10144;SDS011;5113;41.822;23.564;2022-07-22T19:03:07;8.10;;;6.30;;